Terminal Aerodrome Forecast
Issued by NWS Tampa Bay Area, FL

Home | Current Version | Previous Version | Text Only | Print | Product List | Glossary On
Versions: 1 2 3 4 5 6 7 8 9 10 11 12 13 14 15 16 17
000
FTUS42 KTBW 190521
TAFSRQ
TAF
KSRQ 190521Z 1906/2006 04006KT P6SM SCT250
     FM191400 06007KT P6SM SCT250
     FM192000 34007KT P6SM SCT250
     FM200000 01005KT P6SM SCT250=

USA.gov is the U.S. government's official web portal to all federal, state and local government web resources and services.